Doty, WA

4:41 PM PST on December 02, 2016 (GMT -0800)
curtis | | Change Station

Elev 312 ft 46.56 °N, 123.18 °W | Updated 27 seconds ago

Overcast
Overcast
43.0 °F
Feels Like 38 °F
N
8.1
Wind Variable Wind from South
Gusts 18.0 mph

Today
High -- | Low -- °F
--% Chance of Precip.
Yesterday
High -- | Low -- °F
Precip. -- in
Pressure 30.16 in
Visibility 10.0 miles
Clouds Overcast 1400 ft
Windchill 38 °F
Dew Point 42 °F
Humidity 96%
Rainfall 0.07 in
Snow Depth Not available.
7:38 AM 4:26 PM
Waxing Crescent, 11% visible
METAR KCLS 030035Z AUTO 19013G19KT 10SM OVC014 07/06 A3016 RMK AO2
Pressure 30.16 in
Visibility 10.0 miles
Clouds Overcast 1400 ft
Windchill 38 °F
Dew Point 42 °F
Humidity 96%
Rainfall 0.07 in
Snow Depth Not available.
7:38 AM 4:26 PM
Waxing Crescent, 11% visible
METAR KCLS 030035Z AUTO 19013G19KT 10SM OVC014 07/06 A3016 RMK AO2

10-Day Weather Forecast

Almanac

Astronomy

Dec. 02, 2016 Rise Set
Actual Time
Civil Twilight
Nautical Twilight
Astronomical Twilight
Moon
Length of Visible Light
Length of Day
Tomorrow will be .
, % of the Moon is Illuminated

Today's Extremes

State Highs State Lows

Community

WunderPhotos

Upload Photos

1,955,381 photos uploaded!

WunderBlog® & News

Nearby

Air Quality

  Air Quality AQ Index Pollutant
Not available.

Snow Depth

Station Depth Elevation

Earthquake Activity

City Distance Mag. Time & Date
Minimum magnitude displayed is 2.5.

Coastal Water Temperatures

Place Temperature

Stations

Nearby Weather Stations

Station Location Temp. Windchill Dew Point Humidity Wind Precip. Elev Updated Type
                   

Watches & Warnings

There are currently no watches in effect.